WEATHER DATA

TODAY
Time Temp. Dewp. Hum. Bar.
00:01 11.8 11.8 100 1019.1
00:12 11.9 11.9 100 1019.1
00:22 11.9 11.9 100 1019.2
00:31 11.9 11.9 100 1019.3
00:42 11.9 11.9 100 1019.4
00:52 11.9 11.9 100 1019.4
01:02 11.9 11.9 100 1019.4
01:12 11.8 11.8 100 1019.5
01:23 11.7 11.7 100 1019.5
01:33 11.6 11.6 100 1019.6
01:42 11.5 11.5 100 1019.6
01:53 11.2 11.2 100 1019.6
02:03 11 11 100 1019.6
02:13 10.7 10.7 100 1019.8
02:23 10.5 10.5 100 1019.7
02:34 10.3 10.3 100 1019.7
02:44 10.1 10.1 100 1019.7
02:53 10 10 100 1019.8
03:03 9.9 9.9 100 1019.8
03:14 9.9 9.9 100 1019.8
03:24 9.9 9.9 100 1019.9
03:34 9.8 9.8 100 1020
03:44 9.7 9.7 100 1019.9
03:54 9.7 9.7 100 1020
04:04 9.7 9.7 100 1019.9
04:14 9.6 9.6 100 1020
04:25 9.6 9.6 100 1020
04:35 9.5 9.5 100 1020.1
04:45 9.4 9.4 100 1020.1
04:54 9.3 9.3 100 1020.1
05:05 9.2 9.2 100 1020.1
05:15 9.1 9.1 100 1020.1
05:25 9 9 100 1020.2
05:36 9.1 9.1 100 1020.1
05:46 9.1 9.1 100 1020.1
05:55 9 9 100 1020.2
06:05 9 9 100 1020.2
06:16 9.2 9.2 100 1020.3
06:26 9.3 9.3 100 1020.3
06:36 9.4 9.4 100 1020.5
06:46 9.4 9.4 100 1020.4
06:57 9.4 9.4 100 1020.5
07:06 9.4 9.4 100 1020.5
07:16 9.3 9.3 100 1020.6
07:27 9.3 9.3 100 1020.6
07:37 9.4 9.4 100 1020.7
07:47 9.4 9.4 100 1020.8
07:57 9.5 9.5 100 1020.9
08:07 9.5 9.5 100 1020.9
08:17 9.5 9.5 100 1021.1
08:27 9.6 9.6 100 1021.2
08:37 9.6 9.6 100 1021.2
08:48 9.5 9.5 100 1021.4
08:58 9.5 9.5 100 1021.7
09:08 9.7 9.7 100 1021.5
09:18 9.7 9.7 100 1021.7
09:28 9.7 9.7 100 1021.8
09:38 9.8 9.8 100 1021.9
09:48 9.9 9.9 100 1022
09:59 10 10 100 1021.9
10:09 10.1 10.1 100 1021.9
10:18 10.2 10.2 100 1021.8
10:29 10.4 10.4 100 1021.9
10:39 10.6 10.6 100 1022
10:49 10.7 10.7 100 1022
10:59 11 11 100 1022.1
11:10 11.2 11.2 100 1022.3
11:20 11.5 11.5 100 1022.4
11:29 12 12 100 1022.4
11:39 12.3 12.3 100 1022.3
11:50 12.5 12.3 99 1022.3
12:00 12.7 12.4 98 1022
12:10 13.1 12.8 98 1022
12:20 13.4 12.6 95 1021.9
12:30 13.6 12.3 92 1021.7
12:40 13.9 12.6 92 1021.7
12:50 14.2 12.6 90 1021.8
13:01 14.5 12.5 88 1021.6
13:11 14.5 12.4 87 1021.7
13:20 14.4 12.1 86 1021.8
13:31 14.5 12.4 87 1021.6
13:41 14.4 11.9 85 1021.6
13:51 14.3 12.2 87 1021.5
14:01 14.2 11.7 85 1021.5
14:12 13.8 11.5 86 1021.6
14:22 13.7 11.6 87 1021.5
14:31 13.7 11.8 88 1021.5
14:41 14 11.5 85 1021.5
14:52 13.9 11.4 85 1021.2
15:02 14.2 11.7 85 1021.4
15:12 14.7 11.8 83 1021.4
15:22 14.5 11.3 81 1021.2
15:33 14.4 11.6 83 1021
15:42 15.4 11.6 78 1021.1
15:52 16.5 12.3 76 1021
16:03 16.7 11.6 72 1021
16:13 17 11.9 72 1021
16:23 16.3 11 71 1021.1
16:33 15.9 11.1 73 1020.8
16:43 15 10.6 75 1020.9
16:53 14.1 10.5 79 1021
17:03 13.8 10.4 80 1021.1

DAY STATISTIC

2018-10-18
TEMPERATURE
AVERAGE
11.5
HIGH
17.0
16:13
LOW
9.0
05:25
PRESSURE
AVERAGE
1020.8
HIGH
1022.4
11:20
LOW
1019.1
00:01
DEWPOINT
AVERAGE
10.7
HIGH
12.8
12:10
LOW
9.0
05:25
HUMIDITY
AVERAGE
95
HIGH
100
00:01
LOW
71
16:23
TEMPERATURE (°C)
LOW
9.0
HIGH
17.0
AVERAGE
11.5
PRESSURE (hpa)
LOW
1019.1
HIGH
1022.4
AVERAGE
1020.8
DEVICE